Time,TemperatureF,DewpointF,PressureIn,WindDirection,WindDirectionDegrees,WindSpeedMPH,WindSpeedGustMPH,Humidity,HourlyPrecipIn,Conditions,Clouds,dailyrainin,SoftwareType,DateUTC
2013-04-12 00:00:00,38.4,28.8,30.15,WSW,242,0.0,0.0,68,0.00,,,0.02,Wunderground v.1.15,2013-04-12 04:00:00,
2013-04-12 00:05:00,38.4,27.7,30.15,WSW,242,0.0,0.0,65,0.00,,,0.00,Wunderground v.1.15,2013-04-12 04:05:00,
2013-04-12 00:15:00,38.6,26.7,30.15,WSW,242,0.0,0.0,62,0.00,,,0.00,Wunderground v.1.15,2013-04-12 04:15:00,
2013-04-12 00:20:00,38.7,25.6,30.16,WSW,242,0.0,0.0,59,0.00,,,0.00,Wunderground v.1.15,2013-04-12 04:20:00,
2013-04-12 00:25:00,38.7,23.0,30.15,WSW,242,0.0,1.0,53,0.00,,,0.00,Wunderground v.1.15,2013-04-12 04:25:00,
2013-04-12 00:30:00,38.9,23.7,30.15,North,355,0.0,0.0,54,0.00,,,0.00,Wunderground v.1.15,2013-04-12 04:30:00,
2013-04-12 00:35:00,38.9,24.5,30.14,NNE,17,0.0,1.0,56,0.00,,,0.00,Wunderground v.1.15,2013-04-12 04:35:00,
2013-04-12 00:40:00,39.1,22.5,30.14,NE,56,1.0,1.0,51,0.00,,,0.00,Wunderground v.1.15,2013-04-12 04:40:00,
2013-04-12 00:45:00,39.3,22.7,30.14,NNE,32,1.0,1.0,51,0.00,,,0.00,Wunderground v.1.15,2013-04-12 04:45:00,
2013-04-12 00:50:00,39.5,21.9,30.15,NE,35,1.0,1.0,49,0.00,,,0.00,Wunderground v.1.15,2013-04-12 04:50:00,
2013-04-12 00:55:00,39.5,21.9,30.16,NE,34,0.0,1.0,49,0.00,,,0.00,Wunderground v.1.15,2013-04-12 04:55:00,
2013-04-12 01:05:00,39.6,21.5,30.16,East,80,0.0,0.0,48,0.00,,,0.00,Wunderground v.1.15,2013-04-12 05:05:00,
2013-04-12 01:15:00,39.6,21.0,30.16,NNE,32,1.0,1.0,47,0.00,,,0.00,Wunderground v.1.15,2013-04-12 05:15:00,
2013-04-12 01:20:00,39.6,21.0,30.16,NNE,23,1.0,1.0,47,0.00,,,0.00,Wunderground v.1.15,2013-04-12 05:20:00,
2013-04-12 01:30:00,39.5,20.4,30.16,NNE,30,1.0,1.0,46,0.00,,,0.00,Wunderground v.1.15,2013-04-12 05:30:00,
2013-04-12 01:40:00,39.4,20.8,30.16,NE,37,2.0,2.0,47,0.00,,,0.00,Wunderground v.1.15,2013-04-12 05:40:00,
2013-04-12 01:45:00,39.4,20.8,30.15,NE,52,1.0,2.0,47,0.00,,,0.00,Wunderground v.1.15,2013-04-12 05:45:00,
2013-04-12 01:55:00,39.3,20.7,30.14,NNE,15,0.0,1.0,47,0.00,,,0.00,Wunderground v.1.15,2013-04-12 05:55:00,
2013-04-12 02:00:00,39.2,20.6,30.14,NNE,21,0.0,3.0,47,0.00,,,0.00,Wunderground v.1.15,2013-04-12 06:00:00,
2013-04-12 02:05:00,39.2,21.1,30.15,NNE,21,0.0,3.0,48,0.00,,,0.00,Wunderground v.1.15,2013-04-12 06:05:00,
2013-04-12 02:15:00,39.2,21.1,30.15,North,10,1.0,1.0,48,0.00,,,0.00,Wunderground v.1.15,2013-04-12 06:15:00,
2013-04-12 02:25:00,39.1,20.5,30.15,NNE,22,1.0,1.0,47,0.00,,,0.00,Wunderground v.1.15,2013-04-12 06:25:00,
2013-04-12 02:30:00,39.1,20.5,30.16,NNE,22,1.0,1.0,47,0.00,,,0.00,Wunderground v.1.15,2013-04-12 06:30:00,
2013-04-12 02:40:00,39.0,20.9,30.15,NNE,21,1.0,1.0,48,0.00,,,0.00,Wunderground v.1.15,2013-04-12 06:40:00,
2013-04-12 02:45:00,38.9,20.9,30.15,NE,46,1.0,1.0,48,0.00,,,0.00,Wunderground v.1.15,2013-04-12 06:45:00,
2013-04-12 02:55:00,38.8,20.3,30.15,NNE,21,1.0,2.0,47,0.00,,,0.00,Wunderground v.1.15,2013-04-12 06:55:00,
2013-04-12 03:00:00,38.7,20.7,30.16,NNE,23,1.0,1.0,48,0.00,,,0.00,Wunderground v.1.15,2013-04-12 07:00:00,
2013-04-12 03:05:00,38.7,20.7,30.15,ENE,76,1.0,1.0,48,0.00,,,0.00,Wunderground v.1.15,2013-04-12 07:05:00,
2013-04-12 03:15:00,38.5,21.0,30.15,NNE,19,1.0,1.0,49,0.00,,,0.00,Wunderground v.1.15,2013-04-12 07:15:00,
2013-04-12 03:25:00,38.3,20.8,30.15,ENE,73,1.0,1.0,49,0.00,,,0.00,Wunderground v.1.15,2013-04-12 07:25:00,
2013-04-12 03:30:00,38.3,21.3,30.16,NNE,30,1.0,1.0,50,0.00,,,0.00,Wunderground v.1.15,2013-04-12 07:30:00,
2013-04-12 03:35:00,38.2,21.6,30.16,NNE,30,0.0,1.0,51,0.00,,,0.00,Wunderground v.1.15,2013-04-12 07:35:00,
2013-04-12 03:45:00,38.1,21.5,30.16,NE,46,0.0,0.0,51,0.00,,,0.00,Wunderground v.1.15,2013-04-12 07:45:00,
2013-04-12 03:50:00,37.9,22.3,30.17,NE,36,0.0,0.0,53,0.00,,,0.00,Wunderground v.1.15,2013-04-12 07:50:00,
2013-04-12 03:55:00,37.7,24.2,30.17,ESE,122,0.0,1.0,58,0.00,,,0.00,Wunderground v.1.15,2013-04-12 07:55:00,
2013-04-12 04:05:00,37.0,25.2,30.17,NNE,32,0.0,2.0,62,0.00,,,0.01,Wunderground v.1.15,2013-04-12 08:05:00,
2013-04-12 04:15:00,36.1,26.6,30.18,NE,34,0.0,2.0,68,0.04,,,0.02,Wunderground v.1.15,2013-04-12 08:15:00,
2013-04-12 04:20:00,35.8,27.3,30.18,NNE,33,0.0,0.0,71,0.04,,,0.02,Wunderground v.1.15,2013-04-12 08:20:00,
2013-04-12 04:25:00,35.5,27.4,30.18,NNE,33,0.0,0.0,72,0.06,,,0.03,Wunderground v.1.15,2013-04-12 08:25:00,
2013-04-12 04:35:00,35.0,28.5,30.19,NNE,33,0.0,0.0,77,0.13,,,0.05,Wunderground v.1.15,2013-04-12 08:35:00,
2013-04-12 04:40:00,34.6,29.1,30.19,NNE,33,0.0,0.0,80,0.09,,,0.06,Wunderground v.1.15,2013-04-12 08:40:00,
2013-04-12 04:50:00,34.2,29.3,30.18,NE,34,0.0,0.0,82,0.08,,,0.07,Wunderground v.1.15,2013-04-12 08:50:00,
2013-04-12 04:55:00,34.0,29.7,30.19,NE,34,0.0,0.0,84,0.09,,,0.08,Wunderground v.1.15,2013-04-12 08:55:00,
2013-04-12 05:00:00,33.8,29.2,30.18,NE,37,0.0,0.0,83,0.07,,,0.08,Wunderground v.1.15,2013-04-12 09:00:00,
2013-04-12 05:05:00,33.7,29.7,30.18,NE,44,0.0,2.0,85,0.04,,,0.08,Wunderground v.1.15,2013-04-12 09:05:00,
2013-04-12 05:15:00,33.4,29.7,30.18,NNE,19,1.0,1.0,86,0.00,,,0.08,Wunderground v.1.15,2013-04-12 09:15:00,
2013-04-12 05:20:00,33.2,29.2,30.18,North,11,1.0,1.0,85,0.00,,,0.08,Wunderground v.1.15,2013-04-12 09:20:00,
2013-04-12 05:25:00,33.1,28.8,30.19,NNE,14,1.0,1.0,84,0.00,,,0.08,Wunderground v.1.15,2013-04-12 09:25:00,
2013-04-12 05:35:00,32.9,28.9,30.18,NE,38,1.0,1.0,85,0.00,,,0.08,Wunderground v.1.15,2013-04-12 09:35:00,
2013-04-12 05:40:00,32.8,28.8,30.18,NE,53,1.0,1.0,85,0.00,,,0.08,Wunderground v.1.15,2013-04-12 09:40:00,
2013-04-12 05:50:00,32.6,28.9,30.18,NE,56,1.0,1.0,86,0.00,,,0.08,Wunderground v.1.15,2013-04-12 09:50:00,
2013-04-12 05:55:00,32.6,28.6,30.19,NE,56,1.0,1.0,85,0.00,,,0.08,Wunderground v.1.15,2013-04-12 09:55:00,
2013-04-12 06:05:00,32.5,28.8,30.19,NE,56,0.0,1.0,86,0.00,,,0.08,Wunderground v.1.15,2013-04-12 10:05:00,
2013-04-12 06:15:00,32.3,28.6,30.18,NE,56,1.0,2.0,86,0.00,,,0.08,Wunderground v.1.15,2013-04-12 10:15:00,
2013-04-12 06:20:00,32.3,28.3,30.19,NE,56,1.0,1.0,85,0.00,,,0.08,Wunderground v.1.15,2013-04-12 10:20:00,
2013-04-12 06:25:00,32.2,27.9,30.19,NE,56,1.0,1.0,84,0.00,,,0.08,Wunderground v.1.15,2013-04-12 10:25:00,
2013-04-12 06:30:00,32.2,27.9,30.20,NE,56,1.0,1.0,84,0.00,,,0.08,Wunderground v.1.15,2013-04-12 10:30:00,
2013-04-12 06:40:00,32.1,28.4,30.18,NE,56,0.0,0.0,86,0.00,,,0.08,Wunderground v.1.15,2013-04-12 10:40:00,
2013-04-12 06:50:00,31.9,28.2,30.19,NE,56,1.0,1.0,86,0.00,,,0.08,Wunderground v.1.15,2013-04-12 10:50:00,
2013-04-12 07:00:00,31.8,27.8,30.19,NE,56,2.0,2.0,85,0.00,,,0.08,Wunderground v.1.15,2013-04-12 11:00:00,
2013-04-12 07:05:00,31.7,28.0,30.19,NE,56,1.0,2.0,86,0.00,,,0.08,Wunderground v.1.15,2013-04-12 11:05:00,
2013-04-12 07:15:00,31.6,27.9,30.19,NE,56,1.0,1.0,86,0.00,,,0.08,Wunderground v.1.15,2013-04-12 11:15:00,
2013-04-12 07:20:00,31.5,27.8,30.19,NE,56,1.0,3.0,86,0.00,,,0.08,Wunderground v.1.15,2013-04-12 11:20:00,
2013-04-12 07:25:00,31.5,27.8,30.19,NE,56,1.0,3.0,86,0.00,,,0.08,Wunderground v.1.15,2013-04-12 11:25:00,
2013-04-12 07:35:00,31.3,27.6,30.18,NE,56,1.0,6.0,86,0.00,,,0.08,Wunderground v.1.15,2013-04-12 11:35:00,
2013-04-12 07:40:00,31.2,27.5,30.18,NE,56,0.0,4.0,86,0.00,,,0.08,Wunderground v.1.15,2013-04-12 11:40:00,
2013-04-12 07:50:00,31.2,27.5,30.18,NE,56,0.0,0.0,86,0.00,,,0.08,Wunderground v.1.15,2013-04-12 11:50:00,
2013-04-12 07:55:00,31.2,27.5,30.18,NE,56,0.0,0.0,86,0.00,,,0.08,Wunderground v.1.15,2013-04-12 11:55:00,
2013-04-12 08:05:00,31.2,27.5,30.19,NE,56,0.0,1.0,86,0.00,,,0.08,Wunderground v.1.15,2013-04-12 12:05:00,
2013-04-12 08:15:00,31.1,27.1,30.18,NE,56,0.0,0.0,85,0.00,,,0.08,Wunderground v.1.15,2013-04-12 12:15:00,
2013-04-12 08:20:00,31.0,27.3,30.18,NE,56,0.0,0.0,86,0.00,,,0.08,Wunderground v.1.15,2013-04-12 12:20:00,
2013-04-12 08:30:00,31.0,27.3,30.17,NE,56,0.0,1.0,86,0.00,,,0.08,Wunderground v.1.15,2013-04-12 12:30:00,
2013-04-12 08:35:00,31.0,27.0,30.17,NE,56,0.0,1.0,85,0.00,,,0.08,Wunderground v.1.15,2013-04-12 12:35:00,
2013-04-12 08:45:00,31.0,27.0,30.18,NE,56,0.0,0.0,85,0.00,,,0.08,Wunderground v.1.15,2013-04-12 12:45:00,
2013-04-12 08:50:00,31.0,26.7,30.17,NE,56,1.0,1.0,84,0.00,,,0.08,Wunderground v.1.15,2013-04-12 12:50:00,
2013-04-12 08:55:00,31.0,27.0,30.16,NE,56,1.0,1.0,85,0.00,,,0.08,Wunderground v.1.15,2013-04-12 12:55:00,
2013-04-12 09:05:00,31.0,26.7,30.16,NE,56,1.0,1.0,84,0.00,,,0.08,Wunderground v.1.15,2013-04-12 13:05:00,
2013-04-12 09:15:00,31.0,27.0,30.14,NE,56,0.0,0.0,85,0.00,,,0.08,Wunderground v.1.15,2013-04-12 13:15:00,
2013-04-12 09:25:00,31.0,27.0,30.15,NE,56,1.0,1.0,85,0.00,,,0.08,Wunderground v.1.15,2013-04-12 13:25:00,
2013-04-12 09:30:00,31.0,27.0,30.16,NE,56,1.0,1.0,85,0.00,,,0.08,Wunderground v.1.15,2013-04-12 13:30:00,
2013-04-12 09:35:00,31.0,27.0,30.16,NE,56,0.0,1.0,85,0.00,,,0.08,Wunderground v.1.15,2013-04-12 13:35:00,
2013-04-12 09:45:00,31.1,27.1,30.15,NE,56,0.0,0.0,85,0.00,,,0.08,Wunderground v.1.15,2013-04-12 13:45:00,
2013-04-12 09:50:00,31.2,26.9,30.14,NE,56,0.0,0.0,84,0.00,,,0.08,Wunderground v.1.15,2013-04-12 13:50:00,
2013-04-12 10:00:00,31.2,26.9,30.13,NE,56,0.0,0.0,84,0.00,,,0.08,Wunderground v.1.15,2013-04-12 14:00:00,
2013-04-12 10:05:00,31.3,27.3,30.13,NE,56,0.0,2.0,85,0.00,,,0.08,Wunderground v.1.15,2013-04-12 14:05:00,
2013-04-12 10:15:00,31.2,26.9,30.11,NE,56,0.0,1.0,84,0.00,,,0.08,Wunderground v.1.15,2013-04-12 14:15:00,
2013-04-12 10:25:00,31.2,26.9,30.10,NE,56,1.0,1.0,84,0.00,,,0.08,Wunderground v.1.15,2013-04-12 14:25:00,
2013-04-12 10:30:00,31.2,26.9,30.10,NE,56,1.0,1.0,84,0.00,,,0.08,Wunderground v.1.15,2013-04-12 14:30:00,
2013-04-12 10:40:00,31.1,26.8,30.10,NE,56,1.0,1.0,84,0.00,,,0.08,Wunderground v.1.15,2013-04-12 14:40:00,
2013-04-12 10:45:00,31.2,26.9,30.09,NE,56,1.0,1.0,84,0.00,,,0.08,Wunderground v.1.15,2013-04-12 14:45:00,
2013-04-12 10:55:00,31.3,26.7,30.10,NE,56,1.0,7.0,83,0.00,,,0.08,Wunderground v.1.15,2013-04-12 14:55:00,
2013-04-12 11:00:00,31.4,26.8,30.11,NE,56,1.0,1.0,83,0.00,,,0.08,Wunderground v.1.15,2013-04-12 15:00:00,
2013-04-12 11:05:00,31.4,26.8,30.10,NE,56,1.0,1.0,83,0.00,,,0.08,Wunderground v.1.15,2013-04-12 15:05:00,
2013-04-12 11:15:00,31.5,27.2,30.09,ENE,63,1.0,2.0,84,0.00,,,0.08,Wunderground v.1.15,2013-04-12 15:15:00,
2013-04-12 11:25:00,31.5,28.1,30.10,ENE,61,1.0,1.0,87,0.00,,,0.08,Wunderground v.1.15,2013-04-12 15:25:00,
2013-04-12 11:30:00,31.5,28.1,30.09,ENE,62,1.0,1.0,87,0.00,,,0.08,Wunderground v.1.15,2013-04-12 15:30:00,
2013-04-12 11:40:00,31.6,28.5,30.08,ENE,62,1.0,1.0,88,0.00,,,0.09,Wunderground v.1.15,2013-04-12 15:40:00,
2013-04-12 11:45:00,31.6,28.5,30.09,ENE,62,2.0,4.0,88,0.00,,,0.09,Wunderground v.1.15,2013-04-12 15:45:00,
2013-04-12 11:55:00,31.5,28.6,30.08,ENE,62,3.0,3.0,89,0.00,,,0.09,Wunderground v.1.15,2013-04-12 15:55:00,
2013-04-12 12:00:00,31.5,28.6,30.07,ENE,62,2.0,2.0,89,0.00,,,0.09,Wunderground v.1.15,2013-04-12 16:00:00,
2013-04-12 12:05:00,31.5,28.9,30.07,ENE,62,1.0,2.0,90,0.00,,,0.09,Wunderground v.1.15,2013-04-12 16:05:00,
2013-04-12 12:15:00,31.5,28.9,30.08,ENE,61,2.0,2.0,90,0.00,,,0.09,Wunderground v.1.15,2013-04-12 16:15:00,
2013-04-12 12:25:00,31.5,29.2,30.07,ENE,61,2.0,3.0,91,0.00,,,0.09,Wunderground v.1.15,2013-04-12 16:25:00,
2013-04-12 12:30:00,31.6,29.3,30.06,ENE,61,2.0,6.0,91,0.00,,,0.09,Wunderground v.1.15,2013-04-12 16:30:00,
2013-04-12 12:40:00,31.8,29.5,30.05,ENE,62,2.0,2.0,91,0.00,,,0.09,Wunderground v.1.15,2013-04-12 16:40:00,
2013-04-12 12:45:00,31.9,29.8,30.05,ENE,62,2.0,2.0,92,0.00,,,0.09,Wunderground v.1.15,2013-04-12 16:45:00,
2013-04-12 12:50:00,31.9,29.8,30.05,ENE,62,2.0,2.0,92,0.00,,,0.09,Wunderground v.1.15,2013-04-12 16:50:00,
2013-04-12 13:00:00,32.0,29.9,30.06,ENE,61,1.0,1.0,92,0.00,,,0.09,Wunderground v.1.15,2013-04-12 17:00:00,
2013-04-12 13:05:00,32.0,29.9,30.05,ENE,62,1.0,1.0,92,0.00,,,0.09,Wunderground v.1.15,2013-04-12 17:05:00,
2013-04-12 13:15:00,32.1,30.0,30.05,ENE,62,1.0,1.0,92,0.00,,,0.09,Wunderground v.1.15,2013-04-12 17:15:00,
2013-04-12 13:25:00,32.0,29.9,30.03,ENE,62,1.0,2.0,92,0.00,,,0.09,Wunderground v.1.15,2013-04-12 17:25:00,
2013-04-12 13:30:00,32.0,29.9,30.03,ENE,61,1.0,1.0,92,0.00,,,0.09,Wunderground v.1.15,2013-04-12 17:30:00,
2013-04-12 13:35:00,31.9,29.8,30.03,ENE,61,1.0,2.0,92,0.00,,,0.09,Wunderground v.1.15,2013-04-12 17:35:00,
2013-04-12 13:40:00,31.9,30.1,30.03,ENE,61,1.0,3.0,93,0.00,,,0.09,Wunderground v.1.15,2013-04-12 17:40:00,
2013-04-12 13:50:00,31.9,30.1,30.02,ENE,61,2.0,2.0,93,0.00,,,0.09,Wunderground v.1.15,2013-04-12 17:50:00,
2013-04-12 14:00:00,32.0,30.5,30.02,ENE,62,1.0,1.0,94,0.00,,,0.09,Wunderground v.1.15,2013-04-12 18:00:00,
2013-04-12 14:05:00,32.1,30.6,30.02,ENE,62,0.0,1.0,94,0.00,,,0.09,Wunderground v.1.15,2013-04-12 18:05:00,
2013-04-12 14:10:00,32.1,30.6,30.02,ENE,61,0.0,0.0,94,0.00,,,0.09,Wunderground v.1.15,2013-04-12 18:10:00,
2013-04-12 14:20:00,32.2,30.7,30.03,ENE,61,1.0,1.0,94,0.00,,,0.09,Wunderground v.1.15,2013-04-12 18:20:00,
2013-04-12 15:30:00,32.9,31.4,30.00,ENE,62,0.0,0.0,94,0.00,,,0.09,Wunderground v.1.15,2013-04-12 19:30:00,
2013-04-12 15:35:00,32.9,31.4,30.00,ENE,62,0.0,0.0,94,0.00,,,0.09,Wunderground v.1.15,2013-04-12 19:35:00,
2013-04-12 15:40:00,32.8,31.3,29.99,East,98,0.0,0.0,94,0.00,,,0.09,Wunderground v.1.15,2013-04-12 19:40:00,
2013-04-12 15:45:00,32.9,31.6,29.99,ENE,67,0.0,0.0,95,0.00,,,0.09,Wunderground v.1.15,2013-04-12 19:45:00,
2013-04-12 15:50:00,32.8,31.5,29.99,North,5,0.0,0.0,95,0.00,,,0.09,Wunderground v.1.15,2013-04-12 19:50:00,
2013-04-12 15:55:00,32.9,31.4,29.99,North,5,0.0,0.0,94,0.00,,,0.09,Wunderground v.1.15,2013-04-12 19:55:00,
2013-04-12 16:05:00,32.9,31.4,29.99,South,182,0.0,0.0,94,0.00,,,0.09,Wunderground v.1.15,2013-04-12 20:05:00,
2013-04-12 16:15:00,33.0,31.5,29.97,East,87,0.0,0.0,94,0.00,,,0.09,Wunderground v.1.15,2013-04-12 20:15:00,
2013-04-12 16:20:00,33.0,31.5,29.97,ENE,74,0.0,0.0,94,0.00,,,0.09,Wunderground v.1.15,2013-04-12 20:20:00,
2013-04-12 16:25:00,33.0,31.5,29.97,NNW,348,0.0,0.0,94,0.00,,,0.09,Wunderground v.1.15,2013-04-12 20:25:00,
2013-04-12 16:35:00,33.0,31.7,29.97,NE,51,0.0,0.0,95,0.00,,,0.09,Wunderground v.1.15,2013-04-12 20:35:00,
2013-04-12 16:40:00,33.1,31.8,29.96,NE,51,0.0,0.0,95,0.00,,,0.09,Wunderground v.1.15,2013-04-12 20:40:00,
2013-04-12 16:50:00,33.1,31.8,29.96,South,184,0.0,0.0,95,0.00,,,0.09,Wunderground v.1.15,2013-04-12 20:50:00,
2013-04-12 16:55:00,33.2,31.9,29.96,NNE,32,0.0,0.0,95,0.00,,,0.09,Wunderground v.1.15,2013-04-12 20:55:00,
2013-04-12 17:00:00,33.2,31.9,29.96,NNE,13,0.0,0.0,95,0.00,,,0.09,Wunderground v.1.15,2013-04-12 21:00:00,
2013-04-12 17:05:00,33.2,31.9,29.96,ENE,63,0.0,0.0,95,0.00,,,0.09,Wunderground v.1.15,2013-04-12 21:05:00,
2013-04-12 17:15:00,33.2,31.9,29.95,NNE,25,0.0,0.0,95,0.00,,,0.09,Wunderground v.1.15,2013-04-12 21:15:00,
2013-04-12 17:25:00,33.1,31.8,29.95,SSE,168,0.0,0.0,95,0.00,,,0.09,Wunderground v.1.15,2013-04-12 21:25:00,
2013-04-12 17:30:00,33.2,31.9,29.95,ESE,117,0.0,0.0,95,0.00,,,0.09,Wunderground v.1.15,2013-04-12 21:30:00,
2013-04-12 17:35:00,33.2,31.9,29.95,NNE,13,0.0,0.0,95,0.00,,,0.09,Wunderground v.1.15,2013-04-12 21:35:00,
2013-04-12 17:40:00,33.1,31.8,29.95,NE,36,0.0,0.0,95,0.00,,,0.09,Wunderground v.1.15,2013-04-12 21:40:00,
2013-04-12 17:50:00,33.1,31.8,29.95,SSE,156,0.0,0.0,95,0.00,,,0.09,Wunderground v.1.15,2013-04-12 21:50:00,
2013-04-12 17:55:00,33.1,31.8,29.95,NE,42,0.0,0.0,95,0.00,,,0.09,Wunderground v.1.15,2013-04-12 21:55:00,
2013-04-12 18:05:00,33.0,31.5,29.95,NNE,22,0.0,0.0,94,0.00,,,0.09,Wunderground v.1.15,2013-04-12 22:05:00,
2013-04-12 18:15:00,33.0,31.7,29.94,NE,46,0.0,0.0,95,0.00,,,0.09,Wunderground v.1.15,2013-04-12 22:15:00,
2013-04-12 18:20:00,33.0,31.5,29.94,WSW,240,0.0,0.0,94,0.00,,,0.09,Wunderground v.1.15,2013-04-12 22:20:00,
2013-04-12 18:30:00,33.0,31.5,29.94,NNE,32,0.0,0.0,94,0.00,,,0.09,Wunderground v.1.15,2013-04-12 22:30:00,
2013-04-12 18:35:00,33.0,31.7,29.93,ENE,71,0.0,0.0,95,0.00,,,0.09,Wunderground v.1.15,2013-04-12 22:35:00,
2013-04-12 18:45:00,32.9,31.4,29.92,NE,45,0.0,0.0,94,0.00,,,0.09,Wunderground v.1.15,2013-04-12 22:45:00,
2013-04-12 18:50:00,33.0,31.5,29.93,NE,45,0.0,0.0,94,0.00,,,0.09,Wunderground v.1.15,2013-04-12 22:50:00,
2013-04-12 18:55:00,32.9,31.6,29.93,ENE,63,0.0,0.0,95,0.00,,,0.09,Wunderground v.1.15,2013-04-12 22:55:00,
2013-04-12 19:05:00,32.9,31.6,29.92,ESE,106,0.0,0.0,95,0.00,,,0.09,Wunderground v.1.15,2013-04-12 23:05:00,
2013-04-12 19:15:00,32.9,31.6,29.91,NE,53,0.0,0.0,95,0.00,,,0.09,Wunderground v.1.15,2013-04-12 23:15:00,
2013-04-12 19:20:00,32.9,31.6,29.91,NE,36,0.0,0.0,95,0.00,,,0.09,Wunderground v.1.15,2013-04-12 23:20:00,
2013-04-12 19:30:00,32.8,31.5,29.92,NE,46,0.0,0.0,95,0.00,,,0.09,Wunderground v.1.15,2013-04-12 23:30:00,
2013-04-12 19:35:00,32.8,31.5,29.92,NNE,29,0.0,0.0,95,0.00,,,0.09,Wunderground v.1.15,2013-04-12 23:35:00,
2013-04-12 19:40:00,32.8,31.5,29.92,NE,50,0.0,0.0,95,0.00,,,0.09,Wunderground v.1.15,2013-04-12 23:40:00,
2013-04-12 19:50:00,32.8,31.5,29.91,NE,49,0.0,0.0,95,0.00,,,0.09,Wunderground v.1.15,2013-04-12 23:50:00,
2013-04-12 19:55:00,32.8,31.5,29.91,NE,34,0.0,0.0,95,0.00,,,0.09,Wunderground v.1.15,2013-04-12 23:55:00,
2013-04-12 20:05:00,32.8,31.5,29.91,NE,34,0.0,0.0,95,0.00,,,0.09,Wunderground v.1.15,2013-04-13 00:05:00,
2013-04-12 20:15:00,32.7,31.4,29.91,NE,34,0.0,0.0,95,0.00,,,0.09,Wunderground v.1.15,2013-04-13 00:15:00,
2013-04-12 20:20:00,32.7,31.4,29.92,North,10,0.0,0.0,95,0.00,,,0.09,Wunderground v.1.15,2013-04-13 00:20:00,
2013-04-12 20:25:00,32.7,31.4,29.91,ENE,64,0.0,0.0,95,0.00,,,0.09,Wunderground v.1.15,2013-04-13 00:25:00,
2013-04-12 20:35:00,32.7,31.4,29.91,NNE,15,0.0,0.0,95,0.00,,,0.09,Wunderground v.1.15,2013-04-13 00:35:00,
2013-04-12 20:40:00,32.7,31.4,29.91,NE,44,0.0,0.0,95,0.00,,,0.09,Wunderground v.1.15,2013-04-13 00:40:00,
2013-04-12 20:50:00,32.8,31.5,29.91,NNE,29,0.0,0.0,95,0.00,,,0.09,Wunderground v.1.15,2013-04-13 00:50:00,
2013-04-12 20:55:00,32.8,31.5,29.91,NE,42,0.0,0.0,95,0.00,,,0.09,Wunderground v.1.15,2013-04-13 00:55:00,
2013-04-12 21:05:00,32.8,31.5,29.91,NE,36,0.0,0.0,95,0.00,,,0.09,Wunderground v.1.15,2013-04-13 01:05:00,
2013-04-12 21:15:00,32.8,31.5,29.91,ENE,76,0.0,0.0,95,0.00,,,0.09,Wunderground v.1.15,2013-04-13 01:15:00,
2013-04-12 21:20:00,32.8,31.5,29.91,NNE,20,0.0,0.0,95,0.00,,,0.09,Wunderground v.1.15,2013-04-13 01:20:00,
2013-04-12 21:25:00,32.8,31.5,29.90,NE,55,0.0,0.0,95,0.00,,,0.09,Wunderground v.1.15,2013-04-13 01:25:00,
2013-04-12 21:35:00,32.7,31.4,29.90,NNE,15,0.0,0.0,95,0.00,,,0.09,Wunderground v.1.15,2013-04-13 01:35:00,
2013-04-12 21:40:00,32.7,31.4,29.90,NNE,17,0.0,0.0,95,0.00,,,0.09,Wunderground v.1.15,2013-04-13 01:40:00,
2013-04-12 21:50:00,32.6,31.6,29.90,ENE,60,0.0,0.0,96,0.00,,,0.09,Wunderground v.1.15,2013-04-13 01:50:00,
2013-04-12 21:55:00,32.6,31.6,29.90,North,360,0.0,0.0,96,0.00,,,0.09,Wunderground v.1.15,2013-04-13 01:55:00,
2013-04-12 22:05:00,32.6,31.6,29.89,NE,40,0.0,0.0,96,0.00,,,0.09,Wunderground v.1.15,2013-04-13 02:05:00,
2013-04-12 22:15:00,32.5,31.5,29.89,NNE,32,0.0,0.0,96,0.00,,,0.09,Wunderground v.1.15,2013-04-13 02:15:00,
2013-04-12 22:20:00,32.6,31.6,29.88,NNE,32,0.0,0.0,96,0.00,,,0.09,Wunderground v.1.15,2013-04-13 02:20:00,
2013-04-12 22:25:00,32.5,31.5,29.88,NW,325,0.0,0.0,96,0.00,,,0.09,Wunderground v.1.15,2013-04-13 02:25:00,
2013-04-12 22:35:00,32.6,31.6,29.88,NNE,31,0.0,0.0,96,0.00,,,0.09,Wunderground v.1.15,2013-04-13 02:35:00,
2013-04-12 22:45:00,32.6,31.6,29.88,NE,54,0.0,0.0,96,0.00,,,0.09,Wunderground v.1.15,2013-04-13 02:45:00,
2013-04-12 22:50:00,32.6,31.6,29.88,NNE,24,0.0,0.0,96,0.00,,,0.09,Wunderground v.1.15,2013-04-13 02:50:00,
2013-04-12 22:55:00,32.7,31.7,29.89,NE,53,0.0,0.0,96,0.00,,,0.09,Wunderground v.1.15,2013-04-13 02:55:00,
2013-04-12 23:05:00,32.8,31.5,29.88,NE,38,0.0,0.0,95,0.00,,,0.09,Wunderground v.1.15,2013-04-13 03:05:00,
2013-04-12 23:15:00,32.8,31.5,29.87,North,355,0.0,0.0,95,0.00,,,0.09,Wunderground v.1.15,2013-04-13 03:15:00,
2013-04-12 23:20:00,32.8,31.5,29.88,NNE,25,0.0,0.0,95,0.00,,,0.09,Wunderground v.1.15,2013-04-13 03:20:00,
2013-04-12 23:25:00,32.8,31.5,29.87,NNE,17,0.0,0.0,95,0.00,,,0.09,Wunderground v.1.15,2013-04-13 03:25:00,
2013-04-12 23:35:00,32.8,31.5,29.87,NNE,17,0.0,0.0,95,0.00,,,0.09,Wunderground v.1.15,2013-04-13 03:35:00,
2013-04-12 23:40:00,32.9,31.6,29.87,NE,38,0.0,0.0,95,0.00,,,0.09,Wunderground v.1.15,2013-04-13 03:40:00,
2013-04-12 23:50:00,32.9,31.6,29.87,NNE,18,0.0,0.0,95,0.00,,,0.09,Wunderground v.1.15,2013-04-13 03:50:00,
2013-04-12 23:55:00,32.9,31.6,29.87,East,98,0.0,0.0,95,0.00,,,0.09,Wunderground v.1.15,2013-04-13 03:55:00,